Time;durP1;ratioP1;P1;durP2;ratioP2;P2;SDS_P1;SDS_P2;PMS_P1;PMS_P2;Temp;Humidity;BMP_temperature;BMP_pressure;BME280_temperature;BME280_humidity;BME280_pressure;Samples;Min_cycle;Max_cycle;Signal;HPM_P1;HPM_P2
2021/07/05 00:00:11;;;;;;;9.57;4.65;;;;;;;18.24;61.58;99625.72;5011442;28;20044;-69
2021/07/05 00:02:38;;;;;;;8.75;4.70;;;;;;;18.21;61.68;99633.81;5012119;28;20046;-70
2021/07/05 00:05:05;;;;;;;7.28;4.68;;;;;;;18.26;61.48;99647.66;5012188;28;20045;-71
2021/07/05 00:07:31;;;;;;;11.98;4.57;;;;;;;18.21;61.27;99637.31;5012958;28;20049;-70
2021/07/05 00:09:57;;;;;;;10.35;5.20;;;;;;;18.30;61.41;99657.13;4961928;28;20439;-69
2021/07/05 00:12:23;;;;;;;11.10;5.28;;;;;;;18.24;61.21;99647.75;5011248;28;20128;-67
2021/07/05 00:14:48;;;;;;;10.43;4.45;;;;;;;18.22;61.53;99648.78;5012827;28;20053;-70
2021/07/05 00:17:14;;;;;;;9.55;4.97;;;;;;;18.21;61.61;99658.50;5012481;28;20042;-69
2021/07/05 00:19:40;;;;;;;11.95;5.25;;;;;;;18.24;60.82;99649.53;4995799;28;20046;-69
2021/07/05 00:22:06;;;;;;;10.25;4.88;;;;;;;18.21;60.70;99652.34;4993547;28;20042;-69
2021/07/05 00:24:31;;;;;;;9.10;4.72;;;;;;;18.17;61.04;99637.59;5012270;28;20124;-69
2021/07/05 00:26:57;;;;;;;7.90;5.25;;;;;;;18.16;60.89;99627.94;5012814;28;20085;-69
2021/07/05 00:29:23;;;;;;;10.45;5.28;;;;;;;18.13;61.08;99649.28;5036169;28;20062;-69
2021/07/05 00:31:49;;;;;;;9.02;5.03;;;;;;;18.07;61.18;99635.47;5034084;28;20045;-69
2021/07/05 00:34:14;;;;;;;13.85;5.22;;;;;;;18.04;60.96;99640.94;5051267;28;20440;-71
2021/07/05 00:36:40;;;;;;;9.93;4.93;;;;;;;17.89;61.74;99619.78;5052086;28;20036;-69
2021/07/05 00:39:06;;;;;;;6.10;4.90;;;;;;;17.93;61.67;99630.09;5052116;28;20414;-70
2021/07/05 00:41:32;;;;;;;8.73;5.13;;;;;;;17.85;61.53;99613.81;5049852;28;20129;-70
2021/07/05 00:43:59;;;;;;;8.20;4.82;;;;;;;17.91;61.18;99636.41;5050713;28;20575;-71
2021/07/05 00:46:25;;;;;;;10.73;5.22;;;;;;;18.00;60.94;99639.41;5049989;28;20521;-70
2021/07/05 00:48:51;;;;;;;14.05;5.07;;;;;;;18.04;60.82;99646.22;5051783;28;20556;-70
2021/07/05 00:51:17;;;;;;;6.53;4.22;;;;;;;18.03;60.54;99644.53;5051102;28;20494;-70
2021/07/05 00:53:47;;;;;;;13.63;4.93;;;;;;;18.07;60.25;99646.06;5052592;28;20037;-68
2021/07/05 00:56:14;;;;;;;18.30;5.72;;;;;;;18.05;60.39;99645.28;5052567;28;20087;-70
2021/07/05 00:58:40;;;;;;;8.63;4.85;;;;;;;18.09;59.95;99648.63;5051650;28;20532;-74
2021/07/05 01:01:06;;;;;;;8.65;4.57;;;;;;;18.02;60.04;99642.81;5050935;28;20041;-73
2021/07/05 01:03:33;;;;;;;9.95;4.70;;;;;;;18.01;59.93;99633.16;5033307;28;20048;-72
2021/07/05 01:05:59;;;;;;;9.75;4.60;;;;;;;18.14;59.37;99656.28;5050956;28;20467;-70
2021/07/05 01:08:24;;;;;;;11.20;4.63;;;;;;;18.02;60.02;99642.81;5050575;28;20124;-70
2021/07/05 01:10:50;;;;;;;6.10;4.25;;;;;;;18.06;59.93;99648.78;5032657;28;20045;-68
2021/07/05 01:13:16;;;;;;;9.05;5.22;;;;;;;18.03;60.12;99644.53;5050886;28;20421;-69
2021/07/05 01:15:41;;;;;;;8.90;4.78;;;;;;;18.08;60.23;99647.75;5050072;28;20094;-70
2021/07/05 01:18:07;;;;;;;9.02;5.18;;;;;;;18.08;59.45;99653.06;5050440;28;20044;-70
2021/07/05 01:20:36;;;;;;;10.15;5.30;;;;;;;18.06;60.35;99639.06;5050646;28;20045;-71
2021/07/05 01:23:03;;;;;;;7.70;4.90;;;;;;;18.02;60.06;99648.09;5050584;28;20087;-71
2021/07/05 01:25:30;;;;;;;11.32;5.68;;;;;;;17.91;60.08;99624.03;5050489;28;20049;-68
2021/07/05 01:27:57;;;;;;;12.60;5.47;;;;;;;18.00;60.10;99644.69;5049939;28;20516;-69
2021/07/05 01:30:24;;;;;;;8.38;5.47;;;;;;;18.04;60.22;99645.38;5051805;28;20052;-69
2021/07/05 01:32:52;;;;;;;8.63;5.30;;;;;;;17.99;59.83;99650.94;5049925;28;20041;-69
2021/07/05 01:35:17;;;;;;;11.15;5.60;;;;;;;17.91;59.64;99634.63;5050482;28;20072;-70
2021/07/05 01:37:44;;;;;;;10.20;5.53;;;;;;;18.01;59.82;99645.53;5032863;28;20490;-70
2021/07/05 01:40:17;;;;;;;10.15;5.93;;;;;;;17.97;59.86;99636.06;5050327;28;20089;-69
2021/07/05 01:42:53;;;;;;;12.20;5.57;;;;;;;17.98;59.01;99636.00;5051250;28;20416;-67
2021/07/05 01:45:25;;;;;;;14.80;5.28;;;;;;;18.10;58.32;99650.31;5051305;28;20041;-68
2021/07/05 01:47:51;;;;;;;8.63;5.93;;;;;;;18.07;58.62;99653.16;5051053;28;20550;-69
2021/07/05 01:50:17;;;;;;;14.88;6.28;;;;;;;18.03;59.01;99639.22;5050811;28;20061;-68
2021/07/05 01:52:43;;;;;;;8.60;5.90;;;;;;;18.14;58.33;99657.16;5050283;28;20105;-69
2021/07/05 01:55:09;;;;;;;12.20;5.57;;;;;;;18.01;58.16;99643.75;5050835;28;20048;-69
2021/07/05 01:57:36;;;;;;;11.20;5.60;;;;;;;18.13;58.34;99658.09;5050521;28;20051;-69
2021/07/05 02:00:13;;;;;;;14.70;5.90;;;;;;;17.98;57.73;99649.22;5050251;28;20036;-67
2021/07/05 02:02:38;;;;;;;17.45;6.30;;;;;;;17.84;58.48;99646.50;5049258;28;20620;-68
2021/07/05 02:05:10;;;;;;;11.63;6.07;;;;;;;18.00;57.88;99668.50;5050393;28;20124;-67
2021/07/05 02:07:36;;;;;;;12.75;5.97;;;;;;;17.90;58.23;99659.38;5051217;28;20409;-68
2021/07/05 02:10:05;;;;;;;13.88;5.70;;;;;;;17.91;58.05;99653.16;5050029;28;20037;-69
2021/07/05 02:12:31;;;;;;;15.57;6.63;;;;;;;17.93;58.41;99653.91;5049488;28;20029;-68
2021/07/05 02:14:57;;;;;;;11.18;6.07;;;;;;;18.03;57.66;99676.28;5032464;28;20069;-69
2021/07/05 02:17:22;;;;;;;9.68;5.78;;;;;;;17.96;58.06;99658.19;5049094;28;20037;-68
2021/07/05 02:19:48;;;;;;;10.95;5.53;;;;;;;18.06;58.17;99680.56;5048658;28;20041;-70
2021/07/05 02:22:14;;;;;;;11.43;5.55;;;;;;;18.00;58.17;99670.31;5048644;28;20041;-68
2021/07/05 02:24:40;;;;;;;10.82;5.35;;;;;;;17.95;58.07;99670.56;5048789;28;20493;-68
2021/07/05 02:27:05;;;;;;;13.35;5.40;;;;;;;18.35;56.84;99665.66;5050120;28;20048;-69
2021/07/05 02:29:31;;;;;;;19.85;5.80;;;;;;;19.46;53.79;99676.78;5049211;28;20040;-69
2021/07/05 02:31:57;;;;;;;9.05;5.30;;;;;;;20.30;50.86;99688.28;5048909;28;20048;-67
2021/07/05 02:34:23;;;;;;;11.00;5.47;;;;;;;20.78;49.38;99678.03;5031337;28;20091;-68
2021/07/05 02:36:50;;;;;;;8.88;5.93;;;;;;;21.27;48.00;99682.72;5047898;28;20041;-67
2021/07/05 02:39:17;;;;;;;8.73;5.05;;;;;;;21.76;46.33;99675.69;5049406;28;20124;-69
2021/07/05 02:41:43;;;;;;;10.25;6.25;;;;;;;21.99;46.17;99681.16;5049322;28;20144;-68
2021/07/05 02:44:08;;;;;;;11.13;5.60;;;;;;;22.16;45.48;99696.81;5049689;28;20557;-69
2021/07/05 02:46:34;;;;;;;11.77;5.47;;;;;;;22.46;44.68;99696.41;5048972;28;20055;-70
2021/07/05 02:49:01;;;;;;;12.07;5.65;;;;;;;22.61;44.15;99697.06;5049721;28;20076;-71
2021/07/05 02:51:26;;;;;;;15.98;5.70;;;;;;;22.73;43.61;99698.81;5049853;28;20148;-70
2021/07/05 02:53:52;;;;;;;11.98;5.28;;;;;;;22.85;43.20;99687.25;5049531;28;20127;-68
2021/07/05 02:56:18;;;;;;;11.10;4.90;;;;;;;22.97;42.77;99691.66;5049608;28;20037;-67
2021/07/05 02:58:43;;;;;;;9.57;5.78;;;;;;;23.26;42.68;99693.94;5049266;28;20032;-68
2021/07/05 03:01:10;;;;;;;12.70;5.65;;;;;;;23.69;41.42;99700.31;5032226;28;20521;-69
2021/07/05 03:03:36;;;;;;;10.18;5.32;;;;;;;23.61;41.61;99697.41;5048893;28;20148;-68
2021/07/05 03:06:02;;;;;;;10.15;5.35;;;;;;;23.85;41.00;99709.81;5049645;28;20052;-69
2021/07/05 03:08:27;;;;;;;7.03;5.10;;;;;;;23.94;41.15;99690.38;5048949;28;20090;-69
2021/07/05 03:10:54;;;;;;;9.73;5.30;;;;;;;24.16;40.43;99693.00;5049249;28;20047;-69
2021/07/05 03:13:20;;;;;;;9.68;5.25;;;;;;;24.34;40.00;99707.56;5047415;28;20559;-68
2021/07/05 03:15:47;;;;;;;8.70;5.28;;;;;;;24.68;39.09;99696.81;5052223;28;20040;-70
2021/07/05 03:18:13;;;;;;;10.85;5.32;;;;;;;24.55;39.30;99710.34;5051894;28;20047;-69
2021/07/05 03:20:43;;;;;;;10.18;5.00;;;;;;;24.86;38.99;99703.28;5054086;28;20044;-70
2021/07/05 03:23:13;;;;;;;9.40;5.53;;;;;;;25.01;38.37;99701.19;5053487;28;20064;-69
2021/07/05 03:25:39;;;;;;;9.65;5.88;;;;;;;25.12;38.25;99708.28;5052825;28;20053;-70
2021/07/05 03:28:06;;;;;;;8.25;5.05;;;;;;;25.27;37.18;99707.00;5052891;28;20052;-70
2021/07/05 03:30:33;;;;;;;9.40;4.75;;;;;;;25.19;37.19;99704.97;5053213;28;20052;-69
2021/07/05 03:33:00;;;;;;;10.95;5.10;;;;;;;25.83;36.39;99698.56;5053025;28;20069;-69
2021/07/05 03:35:26;;;;;;;13.90;5.43;;;;;;;25.55;36.15;99700.97;5052583;28;20072;-73
2021/07/05 03:37:53;;;;;;;6.82;4.55;;;;;;;26.00;35.55;99711.34;5052696;28;20075;-70
2021/07/05 03:40:26;;;;;;;11.55;5.10;;;;;;;25.94;35.37;99706.53;5051668;28;20037;-68
2021/07/05 03:42:53;;;;;;;10.05;5.03;;;;;;;25.88;35.45;99712.41;5052869;28;20059;-70
2021/07/05 03:45:21;;;;;;;9.52;5.75;;;;;;;26.17;35.16;99704.50;5051856;28;20041;-71
2021/07/05 03:47:47;;;;;;;6.07;4.65;;;;;;;26.23;35.12;99701.25;5053529;28;20071;-72
2021/07/05 03:50:14;;;;;;;8.38;4.60;;;;;;;26.15;35.08;99714.50;5052673;28;20489;-70
2021/07/05 03:52:39;;;;;;;9.27;5.35;;;;;;;26.31;35.16;99732.75;5053071;28;20048;-68
2021/07/05 03:55:08;;;;;;;9.88;5.13;;;;;;;26.45;35.34;99727.03;5052180;28;20044;-69
2021/07/05 03:57:34;;;;;;;9.00;4.47;;;;;;;26.51;34.70;99727.31;5051459;28;20637;-68
2021/07/05 04:00:00;;;;;;;8.27;4.47;;;;;;;26.83;34.40;99739.66;5052220;28;20496;-70
2021/07/05 04:02:26;;;;;;;10.70;4.22;;;;;;;27.06;33.68;99732.19;5052698;28;20079;-67
2021/07/05 04:04:54;;;;;;;11.30;4.50;;;;;;;27.15;33.47;99726.81;5052696;28;20048;-69
2021/07/05 04:07:20;;;;;;;14.05;4.50;;;;;;;27.47;33.69;99726.47;5033798;28;20186;-66
2021/07/05 04:09:46;;;;;;;16.83;3.97;;;;;;;27.49;32.67;99735.22;5052900;28;20127;-69
2021/07/05 04:12:16;;;;;;;7.05;4.00;;;;;;;27.59;33.32;99726.34;5051422;28;20156;-70
2021/07/05 04:14:41;;;;;;;11.85;4.10;;;;;;;27.88;32.31;99723.56;5052474;28;20427;-70
2021/07/05 04:17:07;;;;;;;10.10;4.47;;;;;;;28.29;31.77;99735.72;5051319;28;20037;-70
2021/07/05 04:19:33;;;;;;;7.70;4.07;;;;;;;28.48;31.57;99728.38;5050119;28;20047;-70
2021/07/05 04:22:00;;;;;;;12.15;3.92;;;;;;;28.14;31.55;99738.88;5050211;28;20094;-69
2021/07/05 04:24:25;;;;;;;11.98;3.63;;;;;;;27.94;32.30;99739.94;5051551;28;20167;-71
2021/07/05 04:26:51;;;;;;;9.75;4.25;;;;;;;28.12;32.30;99730.09;5049823;28;20127;-71
2021/07/05 04:29:17;;;;;;;6.10;3.92;;;;;;;27.87;32.07;99709.28;5033718;28;20091;-70
2021/07/05 04:31:43;;;;;;;9.30;3.92;;;;;;;28.37;31.22;99731.28;5051401;28;20547;-69
2021/07/05 04:34:08;;;;;;;7.88;3.97;;;;;;;28.96;31.25;99723.66;5050950;28;20053;-68
2021/07/05 04:36:36;;;;;;;7.10;4.18;;;;;;;28.80;29.88;99744.00;5051151;28;20045;-70
2021/07/05 04:39:05;;;;;;;10.45;4.15;;;;;;;28.77;30.35;99728.16;5050492;28;20045;-69
2021/07/05 04:41:32;;;;;;;11.93;4.05;;;;;;;28.62;30.15;99729.69;5051510;28;20550;-69
2021/07/05 04:43:58;;;;;;;7.53;3.33;;;;;;;29.28;29.04;99721.25;5032656;28;20418;-70
2021/07/05 04:46:24;;;;;;;7.30;3.67;;;;;;;29.55;28.82;99732.91;5050189;28;20055;-68
2021/07/05 04:48:51;;;;;;;6.60;3.60;;;;;;;29.19;29.47;99732.97;5032690;28;20044;-71
2021/07/05 04:51:18;;;;;;;9.27;3.90;;;;;;;29.73;28.60;99714.84;5050287;28;20084;-69
2021/07/05 04:53:44;;;;;;;7.57;3.42;;;;;;;29.32;28.34;99721.78;5050273;28;20144;-69
2021/07/05 04:56:10;;;;;;;8.20;3.50;;;;;;;29.13;29.17;99736.28;5050374;28;20538;-70
2021/07/05 04:58:37;;;;;;;6.45;3.30;;;;;;;29.47;29.11;99746.34;5049453;28;20504;-70
2021/07/05 05:01:03;;;;;;;5.25;3.03;;;;;;;29.33;28.20;99740.47;5050432;28;20132;-70
2021/07/05 05:03:29;;;;;;;6.47;3.20;;;;;;;29.59;28.49;99720.81;5050489;28;20041;-70
2021/07/05 05:05:55;;;;;;;8.15;3.45;;;;;;;29.56;28.92;99723.81;5051889;28;20059;-70
2021/07/05 05:08:20;;;;;;;7.95;3.17;;;;;;;29.40;28.71;99730.75;5051312;28;20083;-70
2021/07/05 05:10:46;;;;;;;7.50;3.25;;;;;;;29.55;27.86;99719.44;5033002;28;20106;-68
2021/07/05 05:13:12;;;;;;;7.75;3.10;;;;;;;29.34;28.09;99719.78;5050476;28;20076;-70
2021/07/05 05:15:38;;;;;;;6.82;3.42;;;;;;;29.17;28.50;99740.34;5051214;28;20056;-68
2021/07/05 05:18:04;;;;;;;6.07;3.10;;;;;;;29.08;28.47;99735.91;5050111;28;20036;-69
2021/07/05 05:20:29;;;;;;;6.07;2.70;;;;;;;29.10;27.82;99717.75;5050755;28;20511;-72
2021/07/05 05:22:55;;;;;;;8.27;2.83;;;;;;;29.09;28.34;99711.50;5050990;28;20147;-70
2021/07/05 05:25:22;;;;;;;5.57;2.80;;;;;;;28.93;27.81;99742.81;5033173;28;20421;-70
2021/07/05 05:27:48;;;;;;;7.63;3.10;;;;;;;29.19;27.47;99724.03;5017293;28;20037;-70
2021/07/05 05:30:16;;;;;;;6.07;2.63;;;;;;;29.20;27.73;99718.50;5050820;28;20050;-70
2021/07/05 05:32:43;;;;;;;5.25;2.72;;;;;;;29.32;27.45;99708.31;5033032;28;20083;-69
2021/07/05 05:35:09;;;;;;;7.78;2.80;;;;;;;29.27;26.92;99719.56;5050182;28;20069;-69
2021/07/05 05:37:35;;;;;;;7.05;3.00;;;;;;;29.24;27.75;99733.34;5049109;28;20048;-69
2021/07/05 05:40:01;;;;;;;5.15;2.92;;;;;;;29.71;27.33;99738.41;5050112;28;20050;-70
2021/07/05 05:42:26;;;;;;;3.78;2.90;;;;;;;29.94;26.87;99728.78;5049216;28;20045;-69
2021/07/05 05:44:52;;;;;;;5.30;3.10;;;;;;;29.92;26.70;99702.97;5047988;28;20413;-70
2021/07/05 05:47:21;;;;;;;8.13;2.88;;;;;;;29.96;26.32;99721.38;5047595;28;20045;-71
2021/07/05 05:49:46;;;;;;;8.75;3.40;;;;;;;30.39;26.06;99727.63;5048234;28;20068;-70
2021/07/05 05:52:12;;;;;;;7.03;3.10;;;;;;;30.76;25.39;99719.13;5048303;28;20044;-69
2021/07/05 05:54:38;;;;;;;11.85;3.30;;;;;;;30.37;26.18;99713.44;5014787;28;20041;-68
2021/07/05 05:57:04;;;;;;;11.18;2.92;;;;;;;30.89;25.83;99710.53;5050217;28;20064;-68
2021/07/05 05:59:32;;;;;;;9.43;2.80;;;;;;;30.96;25.47;99722.38;5048268;28;20583;-70
2021/07/05 06:01:58;;;;;;;9.48;3.03;;;;;;;30.70;25.41;99710.88;5030813;28;20036;-70
2021/07/05 06:04:24;;;;;;;9.68;2.78;;;;;;;31.01;25.81;99711.03;5029520;28;20037;-68
2021/07/05 06:06:49;;;;;;;9.13;2.97;;;;;;;31.45;24.01;99700.75;5048422;28;20057;-68
2021/07/05 06:09:15;;;;;;;13.68;2.88;;;;;;;30.84;24.42;99726.41;5049562;28;20390;-71
2021/07/05 06:11:41;;;;;;;16.83;4.07;;;;;;;30.54;24.77;99709.78;5049496;28;20040;-69
2021/07/05 06:14:08;;;;;;;14.07;3.63;;;;;;;30.90;24.71;99720.34;5048952;28;20083;-71
2021/07/05 06:16:34;;;;;;;7.53;2.85;;;;;;;30.52;23.93;99713.69;5031057;28;20080;-69
2021/07/05 06:19:00;;;;;;;14.68;3.25;;;;;;;30.94;24.06;99727.09;5048895;28;20378;-71
2021/07/05 06:21:27;;;;;;;6.30;3.28;;;;;;;31.29;23.34;99726.81;5047994;28;20044;-71
2021/07/05 06:23:54;;;;;;;10.32;3.20;;;;;;;31.62;23.48;99721.34;5048761;28;20691;-70
2021/07/05 06:26:20;;;;;;;6.43;2.50;;;;;;;31.10;22.69;99724.38;5047925;28;20045;-71
2021/07/05 06:28:46;;;;;;;5.70;2.45;;;;;;;30.45;24.56;99716.16;5048916;28;20559;-72
2021/07/05 06:31:11;;;;;;;10.02;3.08;;;;;;;31.39;23.85;99715.81;5047541;28;20324;-69
2021/07/05 06:33:37;;;;;;;11.68;3.03;;;;;;;31.22;23.88;99725.78;5048777;28;20131;-72
2021/07/05 06:36:04;;;;;;;8.27;3.10;;;;;;;31.55;22.30;99732.00;5047711;28;20731;-73
2021/07/05 06:38:31;;;;;;;5.72;2.70;;;;;;;31.19;23.60;99723.41;5047511;28;20041;-74
2021/07/05 06:40:57;;;;;;;4.13;2.70;;;;;;;30.91;24.10;99727.44;5049385;28;20049;-72
2021/07/05 06:43:24;;;;;;;15.93;3.10;;;;;;;31.48;24.01;99731.00;5013338;28;20386;-70
2021/07/05 06:45:50;;;;;;;6.90;2.72;;;;;;;31.42;23.80;99734.38;5048913;28;20520;-72
2021/07/05 06:48:16;;;;;;;9.32;3.17;;;;;;;31.61;24.21;99716.94;5046600;28;20456;-72
2021/07/05 06:50:42;;;;;;;7.30;3.20;;;;;;;32.08;24.09;99732.41;5046338;28;20076;-71
2021/07/05 06:53:09;;;;;;;3.85;2.70;;;;;;;31.88;22.16;99732.78;5048198;28;20056;-70
2021/07/05 06:55:35;;;;;;;4.80;3.00;;;;;;;31.24;23.76;99745.38;5028430;28;20045;-69
2021/07/05 06:58:02;;;;;;;7.85;2.75;;;;;;;31.12;24.23;99729.63;5047796;28;20441;-71
2021/07/05 07:00:29;;;;;;;4.88;2.70;;;;;;;31.57;24.00;99715.59;5048762;28;20122;-73
2021/07/05 07:02:56;;;;;;;4.65;2.90;;;;;;;30.54;25.44;99727.84;5047422;28;20132;-71
2021/07/05 07:05:23;;;;;;;7.70;2.75;;;;;;;31.05;24.33;99713.25;5047261;28;20044;-72
2021/07/05 07:07:55;;;;;;;5.10;2.83;;;;;;;30.67;24.81;99714.75;5048168;28;20045;-70
2021/07/05 07:10:23;;;;;;;9.55;2.80;;;;;;;30.78;25.72;99716.28;4997606;28;20096;-70
2021/07/05 07:12:49;;;;;;;4.20;3.05;;;;;;;31.09;25.29;99714.59;5019860;28;20069;-73
2021/07/05 07:15:22;;;;;;;8.10;3.17;;;;;;;32.46;23.70;99718.00;5028807;28;20037;-70
2021/07/05 07:17:57;;;;;;;5.65;3.00;;;;;;;32.72;23.21;99739.38;5023397;28;20072;-70
2021/07/05 07:20:23;;;;;;;8.07;3.20;;;;;;;31.97;24.09;99732.78;5008360;28;20049;-71
2021/07/05 07:22:49;;;;;;;4.25;2.80;;;;;;;32.07;24.01;99725.31;4994376;28;20037;-68
2021/07/05 07:25:15;;;;;;;4.88;2.97;;;;;;;32.22;24.39;99707.28;5028634;28;20092;-68
2021/07/05 07:27:42;;;;;;;5.82;3.00;;;;;;;32.58;24.60;99712.19;5027474;28;20049;-70
2021/07/05 07:30:10;;;;;;;4.25;3.15;;;;;;;32.52;23.51;99724.59;5027423;28;20334;-73
2021/07/05 07:32:36;;;;;;;3.25;2.95;;;;;;;31.90;25.21;99728.03;5027384;28;20046;-72
2021/07/05 07:35:03;;;;;;;8.25;3.40;;;;;;;32.41;24.80;99717.72;5027727;28;20087;-70
2021/07/05 07:37:29;;;;;;;13.55;3.70;;;;;;;31.38;25.79;99740.31;5026865;28;20530;-68
2021/07/05 07:40:10;;;;;;;5.75;3.60;;;;;;;31.80;25.27;99740.94;5027961;28;20076;-75
2021/07/05 07:42:36;;;;;;;7.03;3.80;;;;;;;31.86;25.68;99737.53;5010077;28;20498;-69
2021/07/05 07:45:02;;;;;;;9.35;3.30;;;;;;;31.91;26.76;99716.19;5027598;28;20045;-70
2021/07/05 07:47:28;;;;;;;4.97;3.20;;;;;;;30.91;27.18;99725.56;5028693;28;20095;-69
2021/07/05 07:49:54;;;;;;;4.93;3.63;;;;;;;30.35;27.12;99720.84;5026656;28;20054;-69
2021/07/05 07:52:20;;;;;;;7.82;3.30;;;;;;;30.53;27.67;99713.50;5010661;28;20037;-70
2021/07/05 07:54:46;;;;;;;10.63;3.80;;;;;;;31.09;27.47;99722.69;5028119;28;20391;-70
2021/07/05 07:57:16;;;;;;;7.95;3.63;;;;;;;29.24;30.51;99714.47;5027102;28;20128;-69
2021/07/05 07:59:45;;;;;;;6.93;3.28;;;;;;;28.56;30.47;99695.31;5027462;28;20041;-70
2021/07/05 08:02:11;;;;;;;4.55;3.25;;;;;;;28.68;31.14;99718.31;5031006;28;20045;-71
2021/07/05 08:04:40;;;;;;;10.77;4.38;;;;;;;30.15;28.98;99708.66;5031326;28;20502;-70
2021/07/05 08:07:07;;;;;;;11.50;4.35;;;;;;;30.56;28.13;99713.19;5031092;28;20048;-70
2021/07/05 08:09:33;;;;;;;5.70;3.75;;;;;;;30.39;28.29;99706.03;5031831;28;20052;-70
2021/07/05 08:11:59;;;;;;;7.65;4.68;;;;;;;32.30;26.93;99723.53;5030774;28;20049;-70
2021/07/05 08:14:25;;;;;;;4.47;3.83;;;;;;;29.92;30.04;99717.31;5030309;28;20458;-68
2021/07/05 08:16:50;;;;;;;8.05;4.22;;;;;;;27.98;32.55;99721.69;5012879;28;20486;-72
2021/07/05 08:19:16;;;;;;;12.90;8.90;;;;;;;28.59;30.36;99704.94;5031839;28;20473;-68
2021/07/05 08:21:42;;;;;;;8.00;3.28;;;;;;;27.44;33.72;99724.06;5032296;28;20498;-69
2021/07/05 08:24:08;;;;;;;10.07;4.32;;;;;;;30.10;29.59;99719.09;5030590;28;20084;-69
2021/07/05 08:26:35;;;;;;;6.45;4.28;;;;;;;30.27;27.93;99720.84;5030294;28;20423;-70
2021/07/05 08:29:01;;;;;;;7.28;3.40;;;;;;;30.46;28.65;99720.56;5030068;28;20049;-68
2021/07/05 08:31:27;;;;;;;7.10;3.90;;;;;;;30.37;28.41;99729.63;5030753;28;20076;-71
2021/07/05 08:33:53;;;;;;;6.50;3.33;;;;;;;30.19;29.33;99731.59;5030871;28;20068;-69
2021/07/05 08:36:20;;;;;;;5.28;3.70;;;;;;;28.57;32.19;99726.63;5030962;28;20494;-70
2021/07/05 08:38:46;;;;;;;7.00;3.65;;;;;;;27.41;34.21;99721.69;5012370;28;20622;-69
2021/07/05 08:41:12;;;;;;;9.07;4.30;;;;;;;26.94;36.26;99741.38;5027530;28;20037;-70
2021/07/05 08:43:41;;;;;;;4.22;3.35;;;;;;;27.37;34.89;99722.97;5025216;28;20526;-68
2021/07/05 08:46:07;;;;;;;6.22;4.20;;;;;;;26.43;36.25;99719.13;5030566;28;20053;-71
2021/07/05 08:48:36;;;;;;;9.13;4.60;;;;;;;28.07;33.29;99718.09;5028910;28;20074;-71
2021/07/05 08:51:04;;;;;;;13.70;4.25;;;;;;;27.53;34.25;99709.81;5030313;28;20058;-70
2021/07/05 08:53:30;;;;;;;18.23;5.32;;;;;;;28.62;32.77;99692.03;5029020;28;20088;-70
2021/07/05 08:55:56;;;;;;;6.18;3.70;;;;;;;27.65;33.72;99731.16;5029726;28;20037;-69
2021/07/05 08:58:22;;;;;;;7.97;4.20;;;;;;;26.68;35.88;99723.09;5029394;28;20171;-69
2021/07/05 09:00:49;;;;;;;6.63;3.72;;;;;;;26.54;36.13;99704.72;5030328;28;20141;-67
2021/07/05 09:03:21;;;;;;;10.40;4.38;;;;;;;25.93;37.62;99715.53;5023873;28;20045;-68
2021/07/05 09:06:14;;;;;;;4.68;3.28;;;;;;;25.63;37.80;99708.34;5026218;28;20363;-68
2021/07/05 09:08:45;;;;;;;8.73;3.95;;;;;;;26.87;35.81;99695.44;5008931;28;20041;-68
2021/07/05 09:11:37;;;;;;;5.00;3.78;;;;;;;27.60;34.72;99719.97;5009003;28;20054;-68
2021/07/05 09:14:11;;;;;;;7.03;4.10;;;;;;;27.29;35.00;99695.13;5008848;28;20355;-67
2021/07/05 09:16:38;;;;;;;4.70;3.63;;;;;;;26.17;37.20;99701.81;5009026;28;20049;-68
2021/07/05 09:19:23;;;;;;;7.13;4.07;;;;;;;26.94;35.96;99699.25;5011824;28;20080;-70
2021/07/05 09:21:51;;;;;;;7.18;4.13;;;;;;;26.95;35.80;99709.00;5004304;28;20140;-67
2021/07/05 09:24:40;;;;;;;5.90;3.92;;;;;;;26.72;36.45;99704.88;5029003;28;20132;-67
2021/07/05 09:27:18;;;;;;;8.23;3.80;;;;;;;26.44;35.80;99693.16;5010206;28;20045;-68
2021/07/05 09:29:45;;;;;;;5.80;4.05;;;;;;;26.43;35.94;99692.28;5008921;28;20082;-68
2021/07/05 09:32:13;;;;;;;6.20;3.88;;;;;;;25.97;35.93;99701.72;5013309;28;20604;-69
2021/07/05 09:34:41;;;;;;;4.05;3.00;;;;;;;25.92;34.48;99703.97;5027681;28;20033;-67
2021/07/05 09:37:10;;;;;;;4.35;3.03;;;;;;;25.92;34.89;99705.81;5044727;28;20111;-69
2021/07/05 09:39:36;;;;;;;5.22;3.30;;;;;;;25.96;35.79;99696.50;5029374;28;20408;-68
2021/07/05 09:42:07;;;;;;;4.53;3.30;;;;;;;25.94;34.82;99703.84;5027103;28;20041;-68
2021/07/05 09:44:39;;;;;;;4.17;3.10;;;;;;;25.90;34.25;99691.69;5025901;28;20037;-67
2021/07/05 09:47:06;;;;;;;;;;;;;;;26.03;32.74;99697.69;5016123;28;20068;-69
2021/07/05 09:49:33;;;;;;;4.05;3.33;;;;;;;26.01;34.85;99677.34;5006283;28;19933;-68
2021/07/05 09:52:19;;;;;;;2.97;2.78;;;;;;;26.16;34.01;99689.41;5021253;28;20049;-66
2021/07/05 09:55:06;;;;;;;4.35;2.80;;;;;;;26.38;32.75;99682.97;4992918;28;20064;-66
2021/07/05 09:57:41;;;;;;;3.97;2.83;;;;;;;26.51;32.46;99680.88;5016526;28;20125;-69
2021/07/05 10:00:08;;;;;;;4.70;2.80;;;;;;;26.69;33.31;99684.53;5018433;28;20409;-70
2021/07/05 10:02:57;;;;;;;9.38;3.08;;;;;;;26.05;35.39;99674.28;5017970;28;20574;-68
2021/07/05 10:05:23;;;;;;;4.22;3.20;;;;;;;26.56;34.45;99676.78;5001732;28;20072;-70
2021/07/05 10:08:07;;;;;;;4.95;3.60;;;;;;;26.50;35.83;99673.81;5022686;28;20045;-67
2021/07/05 10:10:38;;;;;;;6.10;3.40;;;;;;;26.18;35.94;99701.69;5014270;28;20038;-67
2021/07/05 10:13:07;;;;;;;9.27;3.50;;;;;;;25.89;36.23;99698.03;5014380;28;20486;-66
2021/07/05 10:15:33;;;;;;;18.75;4.78;;;;;;;25.32;38.32;99699.44;5016265;28;20047;-66
2021/07/05 10:17:59;;;;;;;10.00;4.22;;;;;;;25.10;38.74;99699.53;5000260;28;20056;-66
2021/07/05 10:20:31;;;;;;;10.20;4.18;;;;;;;25.28;38.24;99696.16;5025379;28;20041;-67
2021/07/05 10:23:00;;;;;;;13.68;3.80;;;;;;;25.50;37.61;99705.88;5012206;28;20041;-67
2021/07/05 10:25:28;;;;;;;13.05;3.97;;;;;;;25.65;37.29;99699.22;5025947;28;20041;-69
2021/07/05 10:27:54;;;;;;;10.15;3.88;;;;;;;25.45;36.97;99705.44;4979503;28;20048;-73
2021/07/05 10:30:21;;;;;;;7.78;3.97;;;;;;;25.72;36.84;99707.56;4983652;28;20049;-72
2021/07/05 10:32:48;;;;;;;9.00;4.05;;;;;;;25.87;37.67;99716.94;5021440;28;20114;-70
2021/07/05 10:35:15;;;;;;;9.07;4.05;;;;;;;25.97;36.79;99704.41;5015258;28;20129;-69
2021/07/05 10:38:11;;;;;;;9.35;3.70;;;;;;;25.74;36.49;99696.72;5018800;28;20047;-72
2021/07/05 10:40:47;;;;;;;3.47;3.10;;;;;;;25.50;37.63;99713.06;5012468;28;20042;-69
2021/07/05 10:43:42;;;;;;;8.23;4.00;;;;;;;25.40;38.23;99702.28;5013924;28;20060;-69
2021/07/05 10:46:08;;;;;;;5.28;3.60;;;;;;;25.80;37.58;99693.50;5010169;28;20037;-71
2021/07/05 10:48:42;;;;;;;3.50;3.08;;;;;;;25.88;36.13;99685.63;4997437;28;20045;-70
2021/07/05 10:51:14;;;;;;;4.25;2.85;;;;;;;25.68;35.27;99706.13;5012576;28;20061;-72
2021/07/05 10:53:43;;;;;;;;;;;;;;;25.72;35.43;99706.72;5011548;28;20064;-71
2021/07/05 10:56:32;;;;;;;7.95;3.25;;;;;;;25.83;35.44;99714.66;5014805;28;19979;-71
2021/07/05 10:59:18;;;;;;;6.43;3.13;;;;;;;26.12;33.43;99699.56;5015935;28;20569;-71
2021/07/05 11:01:46;;;;;;;4.70;3.22;;;;;;;26.22;33.52;99699.56;5001933;28;20049;-71
2021/07/05 11:04:31;;;;;;;3.63;2.90;;;;;;;26.42;34.45;99700.47;5017309;28;20467;-72
2021/07/05 11:07:11;;;;;;;7.53;3.30;;;;;;;26.34;35.15;99692.28;5022866;28;20079;-71
2021/07/05 11:09:50;;;;;;;5.95;2.83;;;;;;;26.04;34.06;99718.16;5024161;28;20045;-71
2021/07/05 11:12:27;;;;;;;5.25;2.63;;;;;;;25.81;32.91;99700.53;5019029;28;20095;-71
2021/07/05 11:14:53;;;;;;;5.72;2.95;;;;;;;25.88;34.32;99689.16;5027636;28;20049;-71
2021/07/05 11:17:21;;;;;;;6.18;2.92;;;;;;;25.98;35.08;99691.84;5020158;28;20045;-72
2021/07/05 11:19:58;;;;;;;6.40;2.40;;;;;;;25.86;32.69;99671.50;5011376;28;20045;-71
2021/07/05 11:22:28;;;;;;;9.88;3.10;;;;;;;26.00;33.55;99676.47;5008407;28;20041;-68
2021/07/05 11:24:57;;;;;;;4.43;3.15;;;;;;;26.04;34.48;99682.44;5007660;28;20116;-71
2021/07/05 11:27:29;;;;;;;4.13;2.70;;;;;;;25.76;34.28;99676.84;4990497;28;20502;-70
2021/07/05 11:30:02;;;;;;;6.50;3.38;;;;;;;25.60;34.64;99676.47;4989667;28;20054;-71
2021/07/05 11:32:36;;;;;;;6.30;3.13;;;;;;;25.57;34.72;99677.56;4991322;28;20410;-70
2021/07/05 11:35:04;;;;;;;5.95;3.38;;;;;;;25.94;34.28;99659.13;5006518;28;20119;-72